sensor_id;sensor_type;location;lat;lon;timestamp;pressure;altitude;pressure_sealevel;temperature
40199;BMP280;25906;43.536;26.068;2022-12-29T00:02:42;99611.34;;;4.10
40199;BMP280;25906;43.536;26.068;2022-12-29T00:05:28;99622.22;;;4.28
40199;BMP280;25906;43.536;26.068;2022-12-29T00:08:13;99619.47;;;4.33
40199;BMP280;25906;43.536;26.068;2022-12-29T00:10:59;99613.47;;;4.22
40199;BMP280;25906;43.536;26.068;2022-12-29T00:13:44;99617.63;;;4.18
40199;BMP280;25906;43.536;26.068;2022-12-29T00:16:48;99620.31;;;4.18
40199;BMP280;25906;43.536;26.068;2022-12-29T00:19:33;99633.91;;;4.25
40199;BMP280;25906;43.536;26.068;2022-12-29T00:22:38;99636.09;;;4.26
40199;BMP280;25906;43.536;26.068;2022-12-29T00:25:42;99650.66;;;4.36
40199;BMP280;25906;43.536;26.068;2022-12-29T00:28:46;99659.03;;;4.57
40199;BMP280;25906;43.536;26.068;2022-12-29T00:31:50;99640.56;;;4.48
40199;BMP280;25906;43.536;26.068;2022-12-29T00:34:54;99639.63;;;4.45
40199;BMP280;25906;43.536;26.068;2022-12-29T00:37:57;99632.22;;;4.22
40199;BMP280;25906;43.536;26.068;2022-12-29T00:41:02;99646.00;;;3.97
40199;BMP280;25906;43.536;26.068;2022-12-29T00:44:07;99644.59;;;3.85
40199;BMP280;25906;43.536;26.068;2022-12-29T00:46:55;99648.31;;;3.71
40199;BMP280;25906;43.536;26.068;2022-12-29T00:49:40;99640.81;;;3.59
40199;BMP280;25906;43.536;26.068;2022-12-29T00:52:25;99627.19;;;3.46
40199;BMP280;25906;43.536;26.068;2022-12-29T00:55:10;99618.97;;;3.38
40199;BMP280;25906;43.536;26.068;2022-12-29T00:57:56;99626.47;;;3.34
40199;BMP280;25906;43.536;26.068;2022-12-29T01:00:41;99626.47;;;3.51
40199;BMP280;25906;43.536;26.068;2022-12-29T01:03:26;99618.72;;;3.42
40199;BMP280;25906;43.536;26.068;2022-12-29T01:06:12;99619.41;;;3.53
40199;BMP280;25906;43.536;26.068;2022-12-29T01:08:57;99603.63;;;3.44
40199;BMP280;25906;43.536;26.068;2022-12-29T01:12:01;99603.91;;;3.24
40199;BMP280;25906;43.536;26.068;2022-12-29T01:14:47;99603.44;;;3.20
40199;BMP280;25906;43.536;26.068;2022-12-29T01:17:32;99601.94;;;3.36
40199;BMP280;25906;43.536;26.068;2022-12-29T01:20:18;99597.38;;;3.09
40199;BMP280;25906;43.536;26.068;2022-12-29T01:23:03;99604.94;;;3.10
40199;BMP280;25906;43.536;26.068;2022-12-29T01:25:48;99604.84;;;3.32
40199;BMP280;25906;43.536;26.068;2022-12-29T01:28:33;99592.97;;;3.17
40199;BMP280;25906;43.536;26.068;2022-12-29T01:31:19;99588.91;;;2.94
40199;BMP280;25906;43.536;26.068;2022-12-29T01:34:04;99587.91;;;3.08
40199;BMP280;25906;43.536;26.068;2022-12-29T01:36:50;99584.00;;;3.14
40199;BMP280;25906;43.536;26.068;2022-12-29T01:39:35;99584.72;;;3.04
40199;BMP280;25906;43.536;26.068;2022-12-29T01:42:22;99592.25;;;3.22
40199;BMP280;25906;43.536;26.068;2022-12-29T01:45:13;99574.97;;;3.23
40199;BMP280;25906;43.536;26.068;2022-12-29T01:47:59;99568.13;;;3.33
40199;BMP280;25906;43.536;26.068;2022-12-29T01:50:52;99571.81;;;3.24
40199;BMP280;25906;43.536;26.068;2022-12-29T01:53:38;99557.50;;;3.11
40199;BMP280;25906;43.536;26.068;2022-12-29T01:56:23;99559.19;;;3.14
40199;BMP280;25906;43.536;26.068;2022-12-29T01:59:10;99554.81;;;3.16
40199;BMP280;25906;43.536;26.068;2022-12-29T02:01:56;99559.88;;;3.20
40199;BMP280;25906;43.536;26.068;2022-12-29T02:04:42;99555.31;;;3.09
40199;BMP280;25906;43.536;26.068;2022-12-29T02:07:31;99551.66;;;3.12
40199;BMP280;25906;43.536;26.068;2022-12-29T02:10:17;99555.53;;;3.11
40199;BMP280;25906;43.536;26.068;2022-12-29T02:13:04;99545.84;;;3.08
40199;BMP280;25906;43.536;26.068;2022-12-29T02:21:52;99547.56;;;2.95
40199;BMP280;25906;43.536;26.068;2022-12-29T02:24:45;99545.88;;;2.92
40199;BMP280;25906;43.536;26.068;2022-12-29T02:42:04;99534.22;;;2.84
40199;BMP280;25906;43.536;26.068;2022-12-29T02:53:21;99532.28;;;2.30
40199;BMP280;25906;43.536;26.068;2022-12-29T02:56:28;99531.56;;;2.35
40199;BMP280;25906;43.536;26.068;2022-12-29T02:59:13;99527.69;;;2.47
40199;BMP280;25906;43.536;26.068;2022-12-29T03:13:24;99526.94;;;2.14
40199;BMP280;25906;43.536;26.068;2022-12-29T03:19:15;99533.19;;;1.89
40199;BMP280;25906;43.536;26.068;2022-12-29T03:22:04;99525.00;;;2.03
40199;BMP280;25906;43.536;26.068;2022-12-29T03:27:56;99522.81;;;2.13
40199;BMP280;25906;43.536;26.068;2022-12-29T03:30:42;99528.44;;;2.26
40199;BMP280;25906;43.536;26.068;2022-12-29T03:33:28;99530.13;;;2.34
40199;BMP280;25906;43.536;26.068;2022-12-29T03:36:20;99539.34;;;2.33
40199;BMP280;25906;43.536;26.068;2022-12-29T03:39:09;99536.19;;;2.40
40199;BMP280;25906;43.536;26.068;2022-12-29T03:41:59;99533.03;;;2.47
40199;BMP280;25906;43.536;26.068;2022-12-29T03:44:46;99540.06;;;2.39
40199;BMP280;25906;43.536;26.068;2022-12-29T03:47:32;99544.44;;;2.42
40199;BMP280;25906;43.536;26.068;2022-12-29T03:50:17;99544.91;;;2.46
40199;BMP280;25906;43.536;26.068;2022-12-29T03:53:02;99545.66;;;2.36
40199;BMP280;25906;43.536;26.068;2022-12-29T03:55:48;99542.75;;;2.39
40199;BMP280;25906;43.536;26.068;2022-12-29T03:58:34;99535.22;;;2.38
40199;BMP280;25906;43.536;26.068;2022-12-29T04:01:19;99536.41;;;2.31
40199;BMP280;25906;43.536;26.068;2022-12-29T04:04:04;99531.06;;;2.15
40199;BMP280;25906;43.536;26.068;2022-12-29T04:06:50;99542.28;;;2.24
40199;BMP280;25906;43.536;26.068;2022-12-29T04:09:35;99538.09;;;2.18
40199;BMP280;25906;43.536;26.068;2022-12-29T04:12:20;99553.88;;;2.10
40199;BMP280;25906;43.536;26.068;2022-12-29T04:15:06;99538.63;;;2.27
40199;BMP280;25906;43.536;26.068;2022-12-29T04:17:51;99553.19;;;2.21
40199;BMP280;25906;43.536;26.068;2022-12-29T04:20:36;99551.94;;;2.22
40199;BMP280;25906;43.536;26.068;2022-12-29T04:23:40;99548.53;;;1.99
40199;BMP280;25906;43.536;26.068;2022-12-29T04:26:26;99550.94;;;1.97
40199;BMP280;25906;43.536;26.068;2022-12-29T04:29:11;99539.28;;;1.89
40199;BMP280;25906;43.536;26.068;2022-12-29T04:31:56;99541.69;;;1.82
40199;BMP280;25906;43.536;26.068;2022-12-29T04:34:42;99539.22;;;1.79
40199;BMP280;25906;43.536;26.068;2022-12-29T04:37:27;99544.59;;;1.84
40199;BMP280;25906;43.536;26.068;2022-12-29T04:40:12;99544.06;;;1.69
40199;BMP280;25906;43.536;26.068;2022-12-29T04:42:57;99537.75;;;1.72
40199;BMP280;25906;43.536;26.068;2022-12-29T04:45:43;99541.16;;;1.73
40199;BMP280;25906;43.536;26.068;2022-12-29T04:48:29;99548.22;;;1.86
40199;BMP280;25906;43.536;26.068;2022-12-29T04:51:14;99553.34;;;1.90
40199;BMP280;25906;43.536;26.068;2022-12-29T04:54:00;99551.63;;;1.87
40199;BMP280;25906;43.536;26.068;2022-12-29T04:56:45;99549.47;;;1.85
40199;BMP280;25906;43.536;26.068;2022-12-29T04:59:31;99551.69;;;1.98
40199;BMP280;25906;43.536;26.068;2022-12-29T05:02:16;99552.91;;;2.02
40199;BMP280;25906;43.536;26.068;2022-12-29T05:05:01;99558.94;;;2.08
40199;BMP280;25906;43.536;26.068;2022-12-29T05:07:46;99553.63;;;2.08
40199;BMP280;25906;43.536;26.068;2022-12-29T05:10:32;99556.28;;;2.08
40199;BMP280;25906;43.536;26.068;2022-12-29T05:13:17;99556.09;;;2.06
40199;BMP280;25906;43.536;26.068;2022-12-29T05:16:03;99560.91;;;2.08
40199;BMP280;25906;43.536;26.068;2022-12-29T05:18:48;99557.25;;;2.11
40199;BMP280;25906;43.536;26.068;2022-12-29T05:21:33;99561.38;;;1.95
40199;BMP280;25906;43.536;26.068;2022-12-29T05:24:19;99562.09;;;2.07
40199;BMP280;25906;43.536;26.068;2022-12-29T05:27:04;99562.88;;;2.18
40199;BMP280;25906;43.536;26.068;2022-12-29T05:29:50;99567.75;;;2.20
40199;BMP280;25906;43.536;26.068;2022-12-29T05:32:35;99559.94;;;2.11
40199;BMP280;25906;43.536;26.068;2022-12-29T05:35:20;99575.72;;;2.14
40199;BMP280;25906;43.536;26.068;2022-12-29T05:38:05;99572.28;;;1.97
40199;BMP280;25906;43.536;26.068;2022-12-29T05:40:51;99566.50;;;2.10
40199;BMP280;25906;43.536;26.068;2022-12-29T05:43:36;99569.44;;;2.23
40199;BMP280;25906;43.536;26.068;2022-12-29T05:46:22;99565.75;;;2.09
40199;BMP280;25906;43.536;26.068;2022-12-29T05:49:07;99562.59;;;1.94
40199;BMP280;25906;43.536;26.068;2022-12-29T05:51:52;99560.63;;;1.89
40199;BMP280;25906;43.536;26.068;2022-12-29T05:54:38;99562.81;;;1.85
40199;BMP280;25906;43.536;26.068;2022-12-29T05:57:23;99568.38;;;1.82
40199;BMP280;25906;43.536;26.068;2022-12-29T06:00:08;99565.69;;;1.82
40199;BMP280;25906;43.536;26.068;2022-12-29T06:02:54;99569.34;;;1.84
40199;BMP280;25906;43.536;26.068;2022-12-29T06:05:39;99568.84;;;1.81
40199;BMP280;25906;43.536;26.068;2022-12-29T06:08:25;99568.81;;;1.70
40199;BMP280;25906;43.536;26.068;2022-12-29T06:11:10;99573.72;;;1.82
40199;BMP280;25906;43.536;26.068;2022-12-29T06:13:55;99559.38;;;1.74
40199;BMP280;25906;43.536;26.068;2022-12-29T06:16:40;99573.25;;;1.84
40199;BMP280;25906;43.536;26.068;2022-12-29T06:19:26;99570.81;;;1.85
40199;BMP280;25906;43.536;26.068;2022-12-29T06:22:12;99571.31;;;1.89
40199;BMP280;25906;43.536;26.068;2022-12-29T06:24:57;99570.63;;;2.05
40199;BMP280;25906;43.536;26.068;2022-12-29T06:27:43;99564.25;;;1.86
40199;BMP280;25906;43.536;26.068;2022-12-29T06:30:28;99567.44;;;1.96
40199;BMP280;25906;43.536;26.068;2022-12-29T06:33:14;99570.13;;;1.96
40199;BMP280;25906;43.536;26.068;2022-12-29T06:35:59;99566.03;;;2.11
40199;BMP280;25906;43.536;26.068;2022-12-29T06:38:45;99572.34;;;2.19
40199;BMP280;25906;43.536;26.068;2022-12-29T06:41:30;99582.78;;;2.28
40199;BMP280;25906;43.536;26.068;2022-12-29T06:44:16;99579.41;;;2.22
40199;BMP280;25906;43.536;26.068;2022-12-29T06:47:02;99579.38;;;2.11
40199;BMP280;25906;43.536;26.068;2022-12-29T06:49:47;99583.53;;;2.23
40199;BMP280;25906;43.536;26.068;2022-12-29T06:52:32;99577.44;;;2.34
40199;BMP280;25906;43.536;26.068;2022-12-29T06:55:17;99573.81;;;2.47
40199;BMP280;25906;43.536;26.068;2022-12-29T06:58:03;99576.97;;;2.51
40199;BMP280;25906;43.536;26.068;2022-12-29T07:00:48;99574.84;;;2.45
40199;BMP280;25906;43.536;26.068;2022-12-29T07:03:33;99576.25;;;2.56
40199;BMP280;25906;43.536;26.068;2022-12-29T07:06:19;99595.94;;;2.86
40199;BMP280;25906;43.536;26.068;2022-12-29T07:09:04;99605.66;;;2.89
40199;BMP280;25906;43.536;26.068;2022-12-29T07:11:49;99603.22;;;3.13
40199;BMP280;25906;43.536;26.068;2022-12-29T07:14:35;99608.56;;;2.91
40199;BMP280;25906;43.536;26.068;2022-12-29T07:17:21;99608.81;;;2.99
40199;BMP280;25906;43.536;26.068;2022-12-29T07:20:07;99605.66;;;3.11
40199;BMP280;25906;43.536;26.068;2022-12-29T07:22:52;99600.78;;;2.82
40199;BMP280;25906;43.536;26.068;2022-12-29T07:25:38;99601.75;;;3.01
40199;BMP280;25906;43.536;26.068;2022-12-29T07:28:25;99602.97;;;3.11
40199;BMP280;25906;43.536;26.068;2022-12-29T07:31:17;99601.28;;;2.97
40199;BMP280;25906;43.536;26.068;2022-12-29T07:34:03;99605.41;;;3.14
40199;BMP280;25906;43.536;26.068;2022-12-29T07:36:48;99616.78;;;3.37
40199;BMP280;25906;43.536;26.068;2022-12-29T07:39:34;99608.97;;;3.39
40199;BMP280;25906;43.536;26.068;2022-12-29T07:42:19;99608.69;;;3.53
40199;BMP280;25906;43.536;26.068;2022-12-29T07:45:04;99609.41;;;3.59
40199;BMP280;25906;43.536;26.068;2022-12-29T07:47:50;99614.50;;;3.57
40199;BMP280;25906;43.536;26.068;2022-12-29T07:50:35;99610.88;;;3.55
40199;BMP280;25906;43.536;26.068;2022-12-29T07:53:21;99614.25;;;3.66
40199;BMP280;25906;43.536;26.068;2022-12-29T07:56:06;99612.09;;;3.54
40199;BMP280;25906;43.536;26.068;2022-12-29T07:58:52;99616.00;;;3.53
40199;BMP280;25906;43.536;26.068;2022-12-29T08:01:37;99614.97;;;3.66
40199;BMP280;25906;43.536;26.068;2022-12-29T08:04:23;99620.25;;;3.88
40199;BMP280;25906;43.536;26.068;2022-12-29T08:07:08;99616.63;;;3.86
40199;BMP280;25906;43.536;26.068;2022-12-29T08:09:53;99617.72;;;4.01
40199;BMP280;25906;43.536;26.068;2022-12-29T08:12:39;99620.25;;;4.28
40199;BMP280;25906;43.536;26.068;2022-12-29T08:15:25;99622.22;;;4.57
40199;BMP280;25906;43.536;26.068;2022-12-29T08:18:10;99621.50;;;4.57
40199;BMP280;25906;43.536;26.068;2022-12-29T08:20:55;99619.16;;;4.77
40199;BMP280;25906;43.536;26.068;2022-12-29T08:23:40;99619.84;;;4.83
40199;BMP280;25906;43.536;26.068;2022-12-29T08:26:26;99615.13;;;4.65
40199;BMP280;25906;43.536;26.068;2022-12-29T08:29:11;99617.47;;;4.74
40199;BMP280;25906;43.536;26.068;2022-12-29T08:31:56;99623.88;;;4.95
40199;BMP280;25906;43.536;26.068;2022-12-29T08:34:41;99609.56;;;4.87
40199;BMP280;25906;43.536;26.068;2022-12-29T08:37:27;99606.31;;;4.94
40199;BMP280;25906;43.536;26.068;2022-12-29T08:40:12;99605.28;;;5.02
40199;BMP280;25906;43.536;26.068;2022-12-29T08:42:58;99611.19;;;5.19
40199;BMP280;25906;43.536;26.068;2022-12-29T08:45:44;99610.03;;;5.33
40199;BMP280;25906;43.536;26.068;2022-12-29T08:48:29;99610.44;;;5.61
40199;BMP280;25906;43.536;26.068;2022-12-29T08:51:14;99600.66;;;5.63
40199;BMP280;25906;43.536;26.068;2022-12-29T08:54:00;99601.03;;;5.73
40199;BMP280;25906;43.536;26.068;2022-12-29T08:56:45;99591.75;;;5.92
40199;BMP280;25906;43.536;26.068;2022-12-29T08:59:31;99588.94;;;5.97
40199;BMP280;25906;43.536;26.068;2022-12-29T09:02:16;99589.59;;;6.22
40199;BMP280;25906;43.536;26.068;2022-12-29T09:05:01;99584.09;;;6.27
40199;BMP280;25906;43.536;26.068;2022-12-29T09:07:47;99581.47;;;6.40
40199;BMP280;25906;43.536;26.068;2022-12-29T09:10:32;99579.13;;;6.62
40199;BMP280;25906;43.536;26.068;2022-12-29T09:13:17;99585.16;;;6.81
40199;BMP280;25906;43.536;26.068;2022-12-29T09:16:03;99589.28;;;6.69
40199;BMP280;25906;43.536;26.068;2022-12-29T09:18:48;99585.78;;;7.00
40199;BMP280;25906;43.536;26.068;2022-12-29T09:21:34;99583.19;;;7.20
40199;BMP280;25906;43.536;26.068;2022-12-29T09:24:19;99574.06;;;7.23
40199;BMP280;25906;43.536;26.068;2022-12-29T09:27:04;99576.19;;;7.38
40199;BMP280;25906;43.536;26.068;2022-12-29T09:29:49;99573.00;;;7.39
40199;BMP280;25906;43.536;26.068;2022-12-29T09:32:35;99573.09;;;7.46
40199;BMP280;25906;43.536;26.068;2022-12-29T09:35:20;99565.66;;;7.40
40199;BMP280;25906;43.536;26.068;2022-12-29T09:38:05;99565.56;;;7.32
40199;BMP280;25906;43.536;26.068;2022-12-29T09:40:52;99558.91;;;7.46
40199;BMP280;25906;43.536;26.068;2022-12-29T09:46:24;99550.41;;;7.75
40199;BMP280;25906;43.536;26.068;2022-12-29T09:52:06;99544.72;;;7.99
40199;BMP280;25906;43.536;26.068;2022-12-29T09:54:56;99540.84;;;8.07
40199;BMP280;25906;43.536;26.068;2022-12-29T10:00:48;99541.19;;;8.32
40199;BMP280;25906;43.536;26.068;2022-12-29T10:03:41;99545.13;;;8.31
40199;BMP280;25906;43.536;26.068;2022-12-29T10:09:37;99539.00;;;8.50
40199;BMP280;25906;43.536;26.068;2022-12-29T10:12:34;99532.63;;;8.68
40199;BMP280;25906;43.536;26.068;2022-12-29T10:18:37;99529.31;;;8.90
40199;BMP280;25906;43.536;26.068;2022-12-29T10:21:37;99525.19;;;8.89
40199;BMP280;25906;43.536;26.068;2022-12-29T10:24:26;99521.66;;;9.01
40199;BMP280;25906;43.536;26.068;2022-12-29T10:27:14;99513.94;;;9.20
40199;BMP280;25906;43.536;26.068;2022-12-29T10:30:01;99516.81;;;9.15
40199;BMP280;25906;43.536;26.068;2022-12-29T10:32:58;99512.00;;;9.36
40199;BMP280;25906;43.536;26.068;2022-12-29T10:35:43;99519.09;;;9.53
40199;BMP280;25906;43.536;26.068;2022-12-29T10:38:51;99515.31;;;9.56
40199;BMP280;25906;43.536;26.068;2022-12-29T10:41:51;99504.34;;;9.62
40199;BMP280;25906;43.536;26.068;2022-12-29T10:44:38;99513.50;;;9.51
40199;BMP280;25906;43.536;26.068;2022-12-29T10:47:25;99516.56;;;9.70
40199;BMP280;25906;43.536;26.068;2022-12-29T10:50:11;99509.91;;;9.79
40199;BMP280;25906;43.536;26.068;2022-12-29T10:53:02;99514.97;;;9.82
40199;BMP280;25906;43.536;26.068;2022-12-29T10:55:49;99511.19;;;10.00
40199;BMP280;25906;43.536;26.068;2022-12-29T10:58:35;99502.69;;;10.18
40199;BMP280;25906;43.536;26.068;2022-12-29T11:01:21;99499.28;;;10.18
40199;BMP280;25906;43.536;26.068;2022-12-29T11:04:17;99499.06;;;10.23
40199;BMP280;25906;43.536;26.068;2022-12-29T11:07:07;99499.94;;;10.41
40199;BMP280;25906;43.536;26.068;2022-12-29T11:09:53;99492.03;;;10.28
40199;BMP280;25906;43.536;26.068;2022-12-29T11:12:39;99493.28;;;10.42
40199;BMP280;25906;43.536;26.068;2022-12-29T11:15:24;99499.75;;;10.53
40199;BMP280;25906;43.536;26.068;2022-12-29T11:18:20;99493.41;;;10.58
40199;BMP280;25906;43.536;26.068;2022-12-29T11:21:06;99493.75;;;10.62
40199;BMP280;25906;43.536;26.068;2022-12-29T11:23:59;99490.41;;;10.86
40199;BMP280;25906;43.536;26.068;2022-12-29T11:26:45;99491.88;;;10.80
40199;BMP280;25906;43.536;26.068;2022-12-29T11:29:37;99486.44;;;10.87
40199;BMP280;25906;43.536;26.068;2022-12-29T11:32:24;99487.66;;;10.94
40199;BMP280;25906;43.536;26.068;2022-12-29T11:35:17;99484.94;;;10.94
40199;BMP280;25906;43.536;26.068;2022-12-29T11:38:34;99484.00;;;11.06
40199;BMP280;25906;43.536;26.068;2022-12-29T11:41:22;99482.56;;;11.29
40199;BMP280;25906;43.536;26.068;2022-12-29T11:44:10;99481.72;;;11.27
40199;BMP280;25906;43.536;26.068;2022-12-29T11:46:56;99476.66;;;11.23
40199;BMP280;25906;43.536;26.068;2022-12-29T11:49:42;99470.09;;;11.34
40199;BMP280;25906;43.536;26.068;2022-12-29T11:52:34;99466.44;;;11.39
40199;BMP280;25906;43.536;26.068;2022-12-29T11:55:21;99462.72;;;11.51
40199;BMP280;25906;43.536;26.068;2022-12-29T11:58:11;99464.28;;;11.61
40199;BMP280;25906;43.536;26.068;2022-12-29T12:01:02;99453.97;;;11.60
40199;BMP280;25906;43.536;26.068;2022-12-29T12:06:46;99449.75;;;11.66
40199;BMP280;25906;43.536;26.068;2022-12-29T12:09:46;99448.13;;;11.71
40199;BMP280;25906;43.536;26.068;2022-12-29T12:12:35;99447.88;;;11.76
40199;BMP280;25906;43.536;26.068;2022-12-29T12:15:25;99443.84;;;11.60
40199;BMP280;25906;43.536;26.068;2022-12-29T12:18:16;99444.28;;;11.74
40199;BMP280;25906;43.536;26.068;2022-12-29T12:21:08;99446.50;;;11.68
40199;BMP280;25906;43.536;26.068;2022-12-29T12:26:55;99433.56;;;11.59
40199;BMP280;25906;43.536;26.068;2022-12-29T12:32:51;99434.50;;;11.54
40199;BMP280;25906;43.536;26.068;2022-12-29T12:50:57;99425.78;;;11.80
40199;BMP280;25906;43.536;26.068;2022-12-29T13:02:22;99431.94;;;11.80
40199;BMP280;25906;43.536;26.068;2022-12-29T13:20:32;99430.53;;;11.55
40199;BMP280;25906;43.536;26.068;2022-12-29T13:23:30;99439.81;;;11.69
40199;BMP280;25906;43.536;26.068;2022-12-29T13:26:21;99437.59;;;11.75
40199;BMP280;25906;43.536;26.068;2022-12-29T13:29:23;99432.78;;;11.66
40199;BMP280;25906;43.536;26.068;2022-12-29T13:40:55;99426.66;;;11.41
40199;BMP280;25906;43.536;26.068;2022-12-29T13:43:42;99420.13;;;11.44
40199;BMP280;25906;43.536;26.068;2022-12-29T13:46:30;99432.28;;;11.36
40199;BMP280;25906;43.536;26.068;2022-12-29T13:49:20;99422.88;;;11.37
40199;BMP280;25906;43.536;26.068;2022-12-29T13:52:20;99422.22;;;11.29
40199;BMP280;25906;43.536;26.068;2022-12-29T14:04:09;99429.69;;;11.69
40199;BMP280;25906;43.536;26.068;2022-12-29T14:07:04;99430.56;;;11.23
40199;BMP280;25906;43.536;26.068;2022-12-29T14:09:51;99431.72;;;11.13
40199;BMP280;25906;43.536;26.068;2022-12-29T14:12:38;99434.97;;;10.87
40199;BMP280;25906;43.536;26.068;2022-12-29T14:15:24;99430.66;;;10.84
40199;BMP280;25906;43.536;26.068;2022-12-29T14:18:17;99436.19;;;10.62
40199;BMP280;25906;43.536;26.068;2022-12-29T14:23:52;99440.34;;;10.63
40199;BMP280;25906;43.536;26.068;2022-12-29T14:26:38;99439.22;;;10.66
40199;BMP280;25906;43.536;26.068;2022-12-29T14:49:42;99441.97;;;9.67
40199;BMP280;25906;43.536;26.068;2022-12-29T14:52:27;99443.41;;;9.61
40199;BMP280;25906;43.536;26.068;2022-12-29T14:58:03;99442.66;;;9.16
40199;BMP280;25906;43.536;26.068;2022-12-29T15:00:49;99443.69;;;9.05
40199;BMP280;25906;43.536;26.068;2022-12-29T15:03:38;99445.53;;;9.18
40199;BMP280;25906;43.536;26.068;2022-12-29T15:06:28;99447.16;;;9.21
40199;BMP280;25906;43.536;26.068;2022-12-29T15:09:23;99449.84;;;9.21
40199;BMP280;25906;43.536;26.068;2022-12-29T15:15:17;99450.00;;;9.23
40199;BMP280;25906;43.536;26.068;2022-12-29T15:18:13;99444.06;;;9.17
40199;BMP280;25906;43.536;26.068;2022-12-29T15:21:02;99445.84;;;9.14
40199;BMP280;25906;43.536;26.068;2022-12-29T15:23:48;99449.97;;;9.00
40199;BMP280;25906;43.536;26.068;2022-12-29T15:26:38;99448.53;;;9.07
40199;BMP280;25906;43.536;26.068;2022-12-29T15:29:31;99448.34;;;8.98
40199;BMP280;25906;43.536;26.068;2022-12-29T15:32:18;99443.56;;;8.68
40199;BMP280;25906;43.536;26.068;2022-12-29T15:35:16;99446.06;;;8.66
40199;BMP280;25906;43.536;26.068;2022-12-29T15:38:13;99442.63;;;8.58
40199;BMP280;25906;43.536;26.068;2022-12-29T15:44:19;99447.22;;;8.43
40199;BMP280;25906;43.536;26.068;2022-12-29T15:47:16;99445.41;;;8.38
40199;BMP280;25906;43.536;26.068;2022-12-29T15:50:04;99439.78;;;8.36
40199;BMP280;25906;43.536;26.068;2022-12-29T15:52:50;99441.56;;;8.26
40199;BMP280;25906;43.536;26.068;2022-12-29T15:55:37;99431.19;;;8.10
40199;BMP280;25906;43.536;26.068;2022-12-29T15:58:38;99429.50;;;7.99
40199;BMP280;25906;43.536;26.068;2022-12-29T16:01:27;99433.59;;;7.93
40199;BMP280;25906;43.536;26.068;2022-12-29T16:04:13;99436.41;;;7.88
40199;BMP280;25906;43.536;26.068;2022-12-29T16:07:00;99436.97;;;7.86
40199;BMP280;25906;43.536;26.068;2022-12-29T16:09:46;99435.75;;;7.95
40199;BMP280;25906;43.536;26.068;2022-12-29T16:12:33;99435.91;;;7.89
40199;BMP280;25906;43.536;26.068;2022-12-29T16:15:19;99442.41;;;7.73
40199;BMP280;25906;43.536;26.068;2022-12-29T16:18:04;99440.94;;;7.72
40199;BMP280;25906;43.536;26.068;2022-12-29T16:20:49;99441.03;;;7.80
40199;BMP280;25906;43.536;26.068;2022-12-29T16:23:35;99443.41;;;7.43
40199;BMP280;25906;43.536;26.068;2022-12-29T16:26:21;99444.22;;;7.38
40199;BMP280;25906;43.536;26.068;2022-12-29T16:29:08;99443.78;;;7.46
40199;BMP280;25906;43.536;26.068;2022-12-29T16:31:54;99444.31;;;7.45
40199;BMP280;25906;43.536;26.068;2022-12-29T16:34:45;99442.13;;;7.64
40199;BMP280;25906;43.536;26.068;2022-12-29T16:37:31;99433.22;;;7.69
40199;BMP280;25906;43.536;26.068;2022-12-29T16:43:19;99441.63;;;7.65
40199;BMP280;25906;43.536;26.068;2022-12-29T16:49:19;99446.38;;;7.52
40199;BMP280;25906;43.536;26.068;2022-12-29T16:52:11;99448.88;;;7.17
40199;BMP280;25906;43.536;26.068;2022-12-29T16:54:58;99445.91;;;7.07
40199;BMP280;25906;43.536;26.068;2022-12-29T16:57:46;99448.75;;;7.22
40199;BMP280;25906;43.536;26.068;2022-12-29T17:00:34;99442.50;;;7.27
40199;BMP280;25906;43.536;26.068;2022-12-29T17:03:20;99441.31;;;7.15
40199;BMP280;25906;43.536;26.068;2022-12-29T17:06:06;99444.81;;;7.23
40199;BMP280;25906;43.536;26.068;2022-12-29T17:08:51;99443.16;;;7.20
40199;BMP280;25906;43.536;26.068;2022-12-29T17:11:37;99445.00;;;7.25
40199;BMP280;25906;43.536;26.068;2022-12-29T17:14:49;99440.47;;;7.20
40199;BMP280;25906;43.536;26.068;2022-12-29T17:17:50;99453.72;;;7.18
40199;BMP280;25906;43.536;26.068;2022-12-29T17:20:36;99440.41;;;7.13
40199;BMP280;25906;43.536;26.068;2022-12-29T17:23:21;99444.66;;;7.08
40199;BMP280;25906;43.536;26.068;2022-12-29T17:26:07;99446.63;;;7.08
40199;BMP280;25906;43.536;26.068;2022-12-29T17:28:56;99440.09;;;7.03
40199;BMP280;25906;43.536;26.068;2022-12-29T17:31:41;99448.28;;;6.98
40199;BMP280;25906;43.536;26.068;2022-12-29T17:34:31;99432.06;;;6.78
40199;BMP280;25906;43.536;26.068;2022-12-29T17:40:03;99429.28;;;6.83
40199;BMP280;25906;43.536;26.068;2022-12-29T17:42:52;99425.34;;;6.84
40199;BMP280;25906;43.536;26.068;2022-12-29T17:45:38;99423.28;;;6.77
40199;BMP280;25906;43.536;26.068;2022-12-29T17:48:24;99424.09;;;6.85
40199;BMP280;25906;43.536;26.068;2022-12-29T17:51:12;99419.66;;;6.88
40199;BMP280;25906;43.536;26.068;2022-12-29T17:53:58;99410.34;;;6.89
40199;BMP280;25906;43.536;26.068;2022-12-29T17:56:43;99414.88;;;6.93
40199;BMP280;25906;43.536;26.068;2022-12-29T17:59:28;99418.63;;;6.78
40199;BMP280;25906;43.536;26.068;2022-12-29T18:02:20;99413.06;;;6.76
40199;BMP280;25906;43.536;26.068;2022-12-29T18:05:09;99406.13;;;6.67
40199;BMP280;25906;43.536;26.068;2022-12-29T18:07:59;99406.47;;;6.51
40199;BMP280;25906;43.536;26.068;2022-12-29T18:10:45;99412.22;;;6.55
40199;BMP280;25906;43.536;26.068;2022-12-29T18:13:31;99412.03;;;6.53
40199;BMP280;25906;43.536;26.068;2022-12-29T18:16:17;99413.06;;;6.24
40199;BMP280;25906;43.536;26.068;2022-12-29T18:19:02;99411.00;;;6.17
40199;BMP280;25906;43.536;26.068;2022-12-29T18:21:47;99409.03;;;6.18
40199;BMP280;25906;43.536;26.068;2022-12-29T18:24:33;99404.59;;;6.07
40199;BMP280;25906;43.536;26.068;2022-12-29T18:27:18;99401.38;;;6.09
40199;BMP280;25906;43.536;26.068;2022-12-29T18:30:06;99408.59;;;6.01
40199;BMP280;25906;43.536;26.068;2022-12-29T18:32:51;99414.00;;;6.14
40199;BMP280;25906;43.536;26.068;2022-12-29T18:35:39;99410.97;;;6.04
40199;BMP280;25906;43.536;26.068;2022-12-29T18:38:26;99408.50;;;6.06
40199;BMP280;25906;43.536;26.068;2022-12-29T18:41:18;99411.31;;;6.01
40199;BMP280;25906;43.536;26.068;2022-12-29T18:44:04;99410.16;;;6.09
40199;BMP280;25906;43.536;26.068;2022-12-29T18:46:53;99409.13;;;5.99
40199;BMP280;25906;43.536;26.068;2022-12-29T18:49:39;99406.13;;;6.03
40199;BMP280;25906;43.536;26.068;2022-12-29T18:52:24;99409.66;;;6.11
40199;BMP280;25906;43.536;26.068;2022-12-29T18:55:17;99409.56;;;6.16